CPX310 Details

Departure: Robert L. Stanfield International Airport (CYHZ)
Arrival: Chicago/Rockford International Airport (KRFD) at N/A
Route: YSJ DERDO YUL Q824 LETAK Q848 SLLAP BAE
Notes: LOBSTER KING


Current Weather Information
CYHZ 251100Z 02003KT 15SM FEW300 10/09 A3035 RMK CI1 CI TR SLP283
KRFD 251154Z 08006KT 10SM BKN049 BKN070 15/12 A3015 RMK AO2 SLP209 T01500117 10156 20150 58001